< < Back
Terminal Aerodrome Forecast


Current Version              Previous Versions:   1  2  3  4  5  6  7  8  9  

Terminal Aerodrome Forecast

059
FTUS44 KMOB 291722
TAFPNS
TAF
KPNS 291722Z 2918/3018 33009KT P6SM SCT035 BKN200
      TEMPO 2920/2924 VRB20G30KT 4SM TSRA BKN015CB
     FM300200 VRB05KT P6SM SCT050 BKN200=

Latest METAR

590
SAUS70 KWBC 300000 RRN
MTRPNS
METAR KPNS 292353Z 32007KT 10SM CLR 27/24 A2996 RMK AO2 RAE35 SLP147
P0001 60021 T02720244 10367 20250 53001


USA.gov is the U.S. government's official web portal to all federal, state and local government web resources and services.